Time;durP1;ratioP1;P1;durP2;ratioP2;P2;SDS_P1;SDS_P2;PMS_P1;PMS_P2;Temp;Humidity;BMP_temperature;BMP_pressure;BME280_temperature;BME280_humidity;BME280_pressure;Samples;Min_cycle;Max_cycle;Signal;HPM_P1;HPM_P2
2023/07/21 00:00:15;;;;;;;;;2.00;2.00;;;;;28.11;35.14;101282.44;5097353;27;46307;-78
2023/07/21 00:02:41;;;;;;;;;2.00;2.00;;;;;28.02;35.63;101261.28;5097067;27;45376;-79
2023/07/21 00:05:07;;;;;;;;;1.67;1.67;;;;;28.10;35.07;101268.25;5097353;27;45397;-79
2023/07/21 00:07:35;;;;;;;;;1.00;1.00;;;;;27.99;35.10;101252.84;5097070;27;45450;-79
2023/07/21 00:10:07;;;;;;;;;2.00;2.00;;;;;28.10;35.36;101260.25;5096984;27;46419;-79
2023/07/21 00:12:37;;;;;;;;;1.33;0.33;;;;;28.08;35.20;101259.59;5096857;27;45391;-79
2023/07/21 00:15:04;;;;;;;;;1.00;1.00;;;;;28.13;34.78;101262.47;5097131;27;45485;-79
2023/07/21 00:17:30;;;;;;;;;1.33;1.33;;;;;28.02;35.29;101244.41;5096961;27;45542;-79
2023/07/21 00:20:04;;;;;;;;;3.00;1.00;;;;;28.14;35.40;101257.94;5096965;27;46237;-78
2023/07/21 00:22:31;;;;;;;;;2.00;1.00;;;;;28.04;35.22;101253.03;5096552;27;45512;-78
2023/07/21 00:24:56;;;;;;;;;2.00;2.00;;;;;28.01;35.38;101240.09;5097213;27;45401;-78
2023/07/21 00:27:22;;;;;;;;;2.00;2.00;;;;;28.04;35.39;101248.53;5097105;27;45383;-78
2023/07/21 00:29:49;;;;;;;;;2.00;2.00;;;;;28.11;35.71;101244.97;5096869;27;46626;-78
2023/07/21 00:32:18;;;;;;;;;2.00;2.00;;;;;28.06;35.54;101238.44;5096759;27;45470;-78
2023/07/21 00:34:43;;;;;;;;;2.00;2.00;;;;;28.15;35.41;101252.41;5096906;27;45396;-78
2023/07/21 00:37:10;;;;;;;;;2.00;2.00;;;;;28.02;34.97;101228.38;5096597;27;45600;-79
2023/07/21 00:39:36;;;;;;;;;3.00;2.00;;;;;28.01;35.36;101226.72;5096737;27;46525;-79
2023/07/21 00:42:01;;;;;;;;;2.00;2.00;;;;;27.90;35.64;101215.66;5097136;27;45431;-79
2023/07/21 00:44:26;;;;;;;;;3.00;2.00;;;;;28.13;35.22;101249.09;5096914;27;45408;-79
2023/07/21 00:46:51;;;;;;;;;2.00;2.00;;;;;28.05;35.95;101230.63;5096831;27;45270;-79
2023/07/21 00:49:17;;;;;;;;;1.67;1.67;;;;;28.03;35.22;101221.97;5096562;27;46130;-80
2023/07/21 00:51:44;;;;;;;;;1.67;1.67;;;;;28.07;35.33;101226.72;5096426;27;45451;-79
2023/07/21 00:54:09;;;;;;;;;2.67;2.00;;;;;28.16;35.09;101246.00;5096699;27;45233;-79
2023/07/21 00:56:34;;;;;;;;;1.00;1.00;;;;;28.16;35.64;101235.28;5096718;27;45365;-80
2023/07/21 00:59:00;;;;;;;;;1.00;1.00;;;;;28.16;35.11;101229.94;5096553;27;46102;-79
2023/07/21 01:01:26;;;;;;;;;3.00;3.00;;;;;28.16;35.72;101232.63;5096609;27;45256;-80
2023/07/21 01:03:51;;;;;;;;;3.67;2.33;;;;;27.85;35.69;101181.53;5096406;27;45382;-79
2023/07/21 01:06:17;;;;;;;;;1.33;1.33;;;;;28.17;35.40;101223.56;5096398;27;45456;-79
2023/07/21 01:08:43;;;;;;;;;2.00;2.00;;;;;28.03;35.00;101208.59;5096270;27;47531;-80
2023/07/21 01:11:10;;;;;;;;;2.00;2.00;;;;;28.10;35.08;101213.94;5096363;27;45373;-79
2023/07/21 01:13:36;;;;;;;;;0.67;0.67;;;;;27.90;35.63;101178.22;5096253;27;45491;-79
2023/07/21 01:16:03;;;;;;;;;2.00;2.00;;;;;28.18;35.62;101233.22;5096593;27;45490;-79
2023/07/21 01:18:29;;;;;;;;;1.00;1.00;;;;;28.19;35.08;101228.69;5096216;27;46206;-79
2023/07/21 01:20:56;;;;;;;;;2.00;2.00;;;;;28.19;35.39;101231.38;5094654;27;45366;-79
2023/07/21 01:23:39;;;;;;;;;2.00;2.00;;;;;28.08;35.21;101214.13;5096623;27;45205;-79
2023/07/21 01:26:07;;;;;;;;;1.33;1.33;;;;;28.19;35.83;101231.38;5096281;27;45301;-80
2023/07/21 01:28:33;;;;;;;;;2.00;2.00;;;;;27.99;35.71;101194.03;5095948;27;46524;-79
2023/07/21 01:31:00;;;;;;;;;2.00;2.00;;;;;28.06;35.68;101200.97;5096292;27;45409;-79
2023/07/21 01:33:29;;;;;;;;;2.00;2.00;;;;;28.15;35.61;101220.28;5095667;27;45325;-79
2023/07/21 01:35:56;;;;;;;;;3.00;3.00;;;;;28.04;35.45;101207.59;5096372;27;45286;-79
2023/07/21 01:38:23;;;;;;;;;2.00;2.00;;;;;27.72;35.55;101149.47;5096087;27;45365;-79
2023/07/21 01:40:49;;;;;;;;;2.00;2.00;;;;;28.16;35.52;101215.75;5095989;27;45298;-79
2023/07/21 01:43:15;;;;;;;;;2.33;2.33;;;;;28.03;35.70;101195.22;5096022;27;45382;-79
2023/07/21 01:45:41;;;;;;;;;2.67;2.67;;;;;28.17;36.23;101212.88;5096307;27;45408;-79
2023/07/21 01:48:07;;;;;;;;;2.00;2.00;;;;;28.17;35.49;101222.75;5095430;27;47212;-79
2023/07/21 01:50:34;;;;;;;;;2.00;2.00;;;;;28.04;35.60;101196.88;5095859;27;45424;-79
2023/07/21 01:53:06;;;;;;;;;2.00;2.00;;;;;28.17;35.85;101214.72;5096062;27;45577;-79
2023/07/21 01:55:43;;;;;;;;;2.67;2.67;;;;;28.16;36.17;101213.06;5095887;27;45604;-79
2023/07/21 01:58:09;;;;;;;;;2.00;2.00;;;;;28.05;36.04;101198.53;5095699;27;46639;-79
2023/07/21 02:00:41;;;;;;;;;2.33;2.33;;;;;28.17;35.72;101214.72;5095751;27;45415;-79
2023/07/21 02:03:07;;;;;;;;;2.00;2.00;;;;;28.17;36.26;101209.38;5095438;27;45288;-78
2023/07/21 02:05:33;;;;;;;;;1.67;1.67;;;;;28.07;35.26;101194.63;5097191;27;45363;-79
2023/07/21 02:07:59;;;;;;;;;2.00;2.00;;;;;28.14;36.01;101202.59;5099158;27;46118;-79
2023/07/21 02:10:24;;;;;;;;;4.00;2.00;;;;;27.93;36.08;101168.94;5099058;27;45305;-79
2023/07/21 02:12:58;;;;;;;;;1.00;1.00;;;;;28.14;36.00;101194.56;5099052;27;45275;-79
2023/07/21 02:15:23;;;;;;;;;1.33;1.33;;;;;27.12;35.42;101036.41;5099293;27;45303;-79
2023/07/21 02:17:49;;;;;;;;;1.00;1.00;;;;;28.15;36.29;101198.06;5098286;27;46669;-79
2023/07/21 02:20:14;;;;;;;;;1.67;1.67;;;;;28.07;35.46;101180.41;5099173;27;45314;-79
2023/07/21 02:22:40;;;;;;;;;1.00;1.00;;;;;28.19;36.02;101196.59;5099102;27;45351;-79
2023/07/21 02:25:10;;;;;;;;;1.00;1.00;;;;;28.20;35.59;101194.75;5099084;27;45209;-79
2023/07/21 02:27:36;;;;;;;;;1.67;1.67;;;;;28.02;36.00;101164.19;5098771;27;46157;-78
2023/07/21 02:30:03;;;;;;;;;2.00;2.00;;;;;28.19;35.90;101196.59;5098776;27;45398;-79
2023/07/21 02:32:28;;;;;;;;;1.67;1.67;;;;;27.92;35.73;101151.28;5098607;27;45289;-79
2023/07/21 02:34:54;;;;;;;;;1.00;1.00;;;;;28.20;35.52;101187.56;5098782;27;45380;-79
2023/07/21 02:37:20;;;;;;;;;0.00;0.00;;;;;28.05;35.94;101171.78;5098839;27;45329;-79
2023/07/21 02:39:45;;;;;;;;;3.00;3.00;;;;;28.15;35.70;101184.69;5098727;27;45287;-78
2023/07/21 02:42:10;;;;;;;;;1.00;1.00;;;;;28.06;36.00;101173.41;5098739;27;45296;-79
2023/07/21 02:44:36;;;;;;;;;3.00;3.00;;;;;27.84;35.91;101150.47;5098553;27;45451;-79
2023/07/21 02:47:01;;;;;;;;;1.00;1.00;;;;;27.89;36.32;101151.72;5098063;27;46067;-79
2023/07/21 02:49:26;;;;;;;;;1.67;1.67;;;;;28.19;35.54;101199.28;5098544;27;45347;-80
2023/07/21 02:51:52;;;;;;;;;3.33;2.00;;;;;28.18;36.10;101187.75;5098825;27;45521;-79
2023/07/21 02:54:17;;;;;;;;;3.00;3.00;;;;;28.05;36.34;101174.47;5098644;27;45510;-79
2023/07/21 02:56:43;;;;;;;;;2.00;2.00;;;;;28.10;36.23;101179.16;5098604;27;46096;-79
2023/07/21 02:59:09;;;;;;;;;1.67;1.67;;;;;28.20;35.82;101198.25;5098487;27;45327;-79
2023/07/21 03:01:36;;;;;;;;;2.00;2.00;;;;;28.12;35.99;101183.28;5098336;27;45449;-79
2023/07/21 03:04:03;;;;;;;;;2.00;2.00;;;;;27.92;36.09;101149.41;5098589;27;45319;-79
2023/07/21 03:06:30;;;;;;;;;1.67;1.67;;;;;28.06;36.21;101174.25;5098164;27;46355;-79
2023/07/21 03:08:56;;;;;;;;;1.67;1.67;;;;;28.15;36.31;101182.03;5098410;27;45389;-79
2023/07/21 03:11:21;;;;;;;;;2.67;2.67;;;;;28.19;36.12;101188.56;5098440;27;45218;-80
2023/07/21 03:13:47;;;;;;;;;2.00;2.00;;;;;28.11;35.98;101170.91;5097841;27;45206;-79
2023/07/21 03:16:12;;;;;;;;;1.33;1.33;;;;;27.94;36.10;101150.03;5096850;27;45589;-79
2023/07/21 03:18:38;;;;;;;;;1.67;1.67;;;;;27.86;36.07;101128.88;5097609;27;45630;-79
2023/07/21 03:21:04;;;;;;;;;5.67;3.00;;;;;28.19;35.66;101183.22;5098183;27;45306;-79
2023/07/21 03:23:30;;;;;;;;;1.67;1.67;;;;;28.19;35.90;101188.56;5098208;27;45436;-79
2023/07/21 03:25:55;;;;;;;;;3.00;2.00;;;;;28.12;35.53;101171.75;5098089;27;45490;-79
2023/07/21 03:28:25;;;;;;;;;2.00;2.00;;;;;28.04;35.53;101170.13;5097867;27;45492;-79
2023/07/21 03:31:00;;;;;;;;;1.00;1.00;;;;;27.87;36.12;101133.19;5097773;27;45322;-79
2023/07/21 03:33:25;;;;;;;;;2.00;1.67;;;;;28.15;35.42;101179.34;5097779;27;45203;-79
2023/07/21 03:36:01;;;;;;;;;2.00;2.00;;;;;28.21;35.80;101186.50;5097642;27;46031;-79
2023/07/21 03:38:30;;;;;;;;;2.00;2.00;;;;;28.02;36.03;101161.50;5097721;27;45376;-78
2023/07/21 03:41:09;;;;;;;;;3.00;3.00;;;;;28.20;36.37;101187.56;5097858;27;45427;-79
2023/07/21 03:43:37;;;;;;;;;3.00;3.00;;;;;28.03;35.64;101160.47;5097744;27;45504;-79
2023/07/21 03:46:04;;;;;;;;;2.67;1.67;;;;;27.99;36.28;101149.41;5097337;27;46162;-79
2023/07/21 03:48:30;;;;;;;;;3.00;3.00;;;;;28.20;35.83;101182.19;5097607;27;45428;-79
2023/07/21 03:50:59;;;;;;;;;3.00;3.00;;;;;28.19;36.25;101185.91;5097641;27;45428;-79
2023/07/21 03:53:26;;;;;;;;;1.67;1.67;;;;;28.18;36.15;101182.41;5097587;27;45394;-79
2023/07/21 03:55:52;;;;;;;;;2.00;2.00;;;;;28.04;36.44;101164.78;5097384;27;45351;-80
2023/07/21 03:58:17;;;;;;;;;1.33;1.33;;;;;27.94;36.17;101146.53;5097083;27;45323;-79
2023/07/21 04:00:43;;;;;;;;;2.00;2.00;;;;;28.00;36.04;101152.91;5097725;27;45394;-79
2023/07/21 04:03:09;;;;;;;;;1.33;1.33;;;;;28.15;35.89;101174.00;5097645;27;45591;-79
2023/07/21 04:05:34;;;;;;;;;1.00;1.00;;;;;27.74;35.77;101115.31;5097134;27;46432;-79
2023/07/21 04:08:00;;;;;;;;;2.33;1.00;;;;;28.06;36.25;101166.22;5097135;27;45975;-79
2023/07/21 04:10:25;;;;;;;;;2.67;1.67;;;;;27.84;35.94;101130.97;5097423;27;45300;-78
2023/07/21 04:12:50;;;;;;;;;2.67;2.67;;;;;28.03;35.90;101160.47;5096667;27;45358;-79
2023/07/21 04:15:15;;;;;;;;;2.00;2.00;;;;;28.20;35.89;101189.41;5097316;27;47962;-79
2023/07/21 04:17:41;;;;;;;;;4.00;3.00;;;;;27.91;36.09;101153.13;5097245;27;45386;-79
2023/07/21 04:20:09;;;;;;;;;2.67;2.67;;;;;28.19;36.38;101196.59;5097354;27;45318;-78
2023/07/21 04:22:35;;;;;;;;;1.00;1.00;;;;;28.09;36.01;101178.34;5097263;27;45523;-79
2023/07/21 04:25:00;;;;;;;;;2.00;2.00;;;;;28.09;35.70;101173.00;5096918;27;45372;-79
2023/07/21 04:27:28;;;;;;;;;2.00;2.00;;;;;27.87;35.55;101140.41;5096401;27;45296;-79
2023/07/21 04:29:54;;;;;;;;;1.00;1.00;;;;;28.16;36.21;101195.16;5097145;27;45885;-79
2023/07/21 04:32:20;;;;;;;;;3.33;3.00;;;;;28.18;35.74;101193.09;5096992;27;45429;-79
2023/07/21 04:34:45;;;;;;;;;2.00;2.00;;;;;27.92;36.01;101145.94;5097596;27;45422;-79
2023/07/21 04:37:12;;;;;;;;;2.00;2.00;;;;;27.91;36.04;101153.13;5099141;27;45364;-79
2023/07/21 04:39:37;;;;;;;;;3.67;3.00;;;;;27.72;36.16;101130.75;5097893;27;45457;-79
2023/07/21 04:42:03;;;;;;;;;1.33;1.33;;;;;28.20;35.67;101192.91;5096951;27;45351;-79
2023/07/21 04:44:28;;;;;;;;;2.67;2.67;;;;;28.20;36.01;101190.22;5096707;27;45593;-79
2023/07/21 04:46:53;;;;;;;;;2.67;2.00;;;;;28.15;35.78;101184.69;5096770;27;45463;-80
2023/07/21 04:49:19;;;;;;;;;1.00;1.00;;;;;28.15;36.17;101180.19;5096994;27;45435;-79
2023/07/21 04:51:44;;;;;;;;;2.00;2.00;;;;;28.13;36.23;101178.75;5096996;27;45433;-79
2023/07/21 04:54:11;;;;;;;;;3.00;2.33;;;;;27.83;35.97;101132.81;5096481;27;45446;-79
2023/07/21 04:56:37;;;;;;;;;1.00;1.00;;;;;28.07;35.69;101167.88;5096392;27;45265;-79
2023/07/21 04:59:02;;;;;;;;;2.00;2.00;;;;;28.21;36.36;101193.72;5096587;27;45317;-80
2023/07/21 05:01:28;;;;;;;;;2.00;2.00;;;;;28.15;36.46;101185.53;5096644;27;45363;-79
2023/07/21 05:03:53;;;;;;;;;3.00;2.00;;;;;28.20;35.85;101186.72;5096616;27;46818;-80
2023/07/21 05:06:18;;;;;;;;;2.00;2.00;;;;;27.86;35.97;101136.91;5096653;27;45417;-79
2023/07/21 05:08:44;;;;;;;;;1.00;1.00;;;;;28.19;36.37;101191.25;5096772;27;45361;-79
2023/07/21 05:11:09;;;;;;;;;2.00;2.00;;;;;28.05;35.91;101166.44;5096169;27;45504;-79
2023/07/21 05:13:35;;;;;;;;;1.67;1.67;;;;;27.99;36.58;101153.91;5096136;27;46177;-79
2023/07/21 05:16:01;;;;;;;;;3.00;2.00;;;;;27.88;35.97;101137.50;5096402;27;45341;-79
2023/07/21 05:18:26;;;;;;;;;2.00;2.00;;;;;27.85;36.67;101145.94;5094955;27;45675;-79
2023/07/21 05:20:51;;;;;;;;;2.67;2.67;;;;;28.21;35.72;101191.84;5096358;27;45422;-79
2023/07/21 05:23:17;;;;;;;;;2.33;2.33;;;;;28.21;36.05;101194.53;5096310;27;46636;-79
2023/07/21 05:25:42;;;;;;;;;2.00;2.00;;;;;27.90;35.80;101142.63;5096161;27;45344;-83
2023/07/21 05:28:08;;;;;;;;;1.67;1.67;;;;;28.21;35.68;101191.06;5096648;27;45387;-79
2023/07/21 05:30:34;;;;;;;;;2.00;2.00;;;;;28.16;35.92;101191.66;5096509;27;45510;-77
2023/07/21 05:33:00;;;;;;;;;2.67;2.67;;;;;28.22;36.32;101195.34;5095965;27;46548;-80
2023/07/21 05:35:27;;;;;;;;;1.33;1.33;;;;;28.19;35.57;101191.25;5096088;27;45313;-84
2023/07/21 05:37:52;;;;;;;;;2.00;2.00;;;;;28.05;35.07;101193.19;5096232;27;45298;-85
2023/07/21 05:40:18;;;;;;;;;5.33;4.00;;;;;27.78;35.04;101188.75;5090358;27;45431;-84
2023/07/21 05:42:47;;;;;;;;;2.00;2.00;;;;;27.59;35.00;101190.44;5099137;27;46205;-76
2023/07/21 05:45:12;;;;;;;;;2.00;2.00;;;;;27.43;35.67;101197.06;5098634;27;45487;-79
2023/07/21 05:47:37;;;;;;;;;5.00;4.00;;;;;27.37;36.22;101194.19;5104794;27;45527;-79
2023/07/21 05:50:04;;;;;;;;;3.33;3.33;;;;;27.37;36.29;101198.72;5103988;27;46584;-80
2023/07/21 05:52:29;;;;;;;;;2.00;1.67;;;;;27.38;36.24;101197.66;5098233;27;46592;-81
2023/07/21 05:54:54;;;;;;;;;3.00;2.00;;;;;27.37;36.54;101199.53;5098347;27;45481;-78
2023/07/21 05:57:20;;;;;;;;;1.00;1.00;;;;;27.38;36.38;101203.00;5096898;27;45920;-79
2023/07/21 05:59:45;;;;;;;;;3.00;2.00;;;;;27.34;36.05;101191.94;5098855;27;45501;-79
2023/07/21 06:02:11;;;;;;;;;2.33;2.33;;;;;27.34;36.03;101183.09;5098242;27;45450;-78
2023/07/21 06:04:37;;;;;;;;;3.00;3.00;;;;;27.22;36.48;101158.88;5098569;27;45463;-77
2023/07/21 06:07:03;;;;;;;;;3.00;1.67;;;;;27.56;36.57;101209.59;5098655;27;45421;-81
2023/07/21 06:09:28;;;;;;;;;3.33;3.33;;;;;27.50;36.07;101185.34;5098633;27;45235;-77
2023/07/21 06:11:54;;;;;;;;;2.00;2.00;;;;;27.63;36.17;101180.97;5098745;27;47258;-79
2023/07/21 06:14:20;;;;;;;;;4.33;2.00;;;;;27.83;36.33;101201.50;5098815;27;45417;-79
2023/07/21 06:16:45;;;;;;;;;2.00;2.00;;;;;27.61;35.91;101170.47;5099245;27;45390;-78
2023/07/21 06:19:10;;;;;;;;;1.67;1.67;;;;;28.04;35.64;101192.38;5099027;27;45376;-79
2023/07/21 06:21:36;;;;;;;;;2.00;2.00;;;;;28.18;35.55;101186.94;5098831;27;47329;-78
2023/07/21 06:24:01;;;;;;;;;3.67;2.67;;;;;27.77;35.53;101093.53;5098589;27;45348;-78
2023/07/21 06:26:27;;;;;;;;;2.67;2.67;;;;;28.68;35.47;101201.47;5098962;27;45349;-79
2023/07/21 06:28:52;;;;;;;;;3.33;3.33;;;;;28.81;34.98;101197.88;5098839;27;45400;-78
2023/07/21 06:31:18;;;;;;;;;3.67;1.67;;;;;28.84;35.29;101183.22;5098940;27;45332;-79
2023/07/21 06:33:44;;;;;;;;;4.00;3.00;;;;;29.11;34.92;101201.78;5098831;27;45417;-78
2023/07/21 06:36:09;;;;;;;;;2.00;2.00;;;;;29.25;34.50;101215.06;5098989;27;45391;-78
2023/07/21 06:38:34;;;;;;;;;3.00;3.00;;;;;29.21;34.75;101195.91;5098534;27;45366;-78
2023/07/21 06:41:01;;;;;;;;;4.33;3.67;;;;;29.29;34.47;101200.97;5098567;27;45228;-79
2023/07/21 06:43:26;;;;;;;;;3.67;2.67;;;;;29.39;34.23;101221.91;5098806;27;45272;-79
2023/07/21 06:45:51;;;;;;;;;1.00;1.00;;;;;29.39;34.94;101211.19;5098608;27;45221;-79
2023/07/21 06:48:17;;;;;;;;;4.00;4.00;;;;;29.39;34.23;101205.81;5098631;27;45223;-78
2023/07/21 06:50:42;;;;;;;;;3.33;3.00;;;;;29.40;34.98;101210.16;5096997;27;46369;-79
2023/07/21 06:53:07;;;;;;;;;2.00;2.00;;;;;29.19;34.71;101173.88;5097887;27;45333;-78
2023/07/21 06:55:33;;;;;;;;;3.00;3.00;;;;;29.44;34.58;101209.69;5098471;27;45505;-79
2023/07/21 06:57:59;;;;;;;;;2.00;2.00;;;;;29.44;34.65;101204.34;5098529;27;45378;-79
2023/07/21 07:00:24;;;;;;;;;4.00;2.67;;;;;29.45;34.56;101206.81;5096707;27;46045;-79
2023/07/21 07:02:50;;;;;;;;;4.00;3.00;;;;;29.33;34.63;101185.25;5096983;27;45419;-79
2023/07/21 07:05:16;;;;;;;;;2.00;2.00;;;;;29.08;34.67;101145.94;5094512;27;45448;-78
2023/07/21 07:07:42;;;;;;;;;1.33;1.33;;;;;29.49;34.47;101207.16;5097740;27;45354;-79
2023/07/21 07:10:08;;;;;;;;;3.00;3.00;;;;;29.29;34.19;101174.19;5104393;27;46353;-79
2023/07/21 07:12:33;;;;;;;;;3.00;3.00;;;;;29.52;34.47;101207.53;5110286;27;45344;-78
2023/07/21 07:14:59;;;;;;;;;4.00;2.00;;;;;29.55;34.59;101210.81;5097889;27;45525;-78
2023/07/21 07:17:24;;;;;;;;;2.00;2.00;;;;;29.56;34.49;101207.91;5097848;27;45387;-79
2023/07/21 07:19:49;;;;;;;;;1.67;1.67;;;;;29.58;34.50;101202.34;5097697;27;46862;-78
2023/07/21 07:22:15;;;;;;;;;2.67;1.67;;;;;29.59;34.50;101209.31;5097521;27;45480;-78
2023/07/21 07:24:40;;;;;;;;;2.33;2.33;;;;;29.37;34.37;101173.06;5097825;27;45224;-78
2023/07/21 07:27:06;;;;;;;;;1.00;1.00;;;;;29.58;34.65;101205.00;5098188;27;45316;-79
2023/07/21 07:29:31;;;;;;;;;2.00;2.00;;;;;29.64;34.28;101212.16;5097307;27;46165;-79
2023/07/21 07:31:56;;;;;;;;;3.00;3.00;;;;;29.64;34.45;101204.09;5100611;27;45684;-78
2023/07/21 07:34:22;;;;;;;;;1.67;1.67;;;;;29.50;34.65;101185.50;5118102;27;45402;-79
2023/07/21 07:36:48;;;;;;;;;2.67;2.67;;;;;29.38;34.64;101169.34;5117926;27;45434;-79
2023/07/21 07:39:15;;;;;;;;;2.00;1.00;;;;;28.95;34.00;101094.13;5120229;27;47403;-78
2023/07/21 07:41:40;;;;;;;;;2.00;2.00;;;;;29.69;34.47;101214.19;5120120;27;45374;-78
2023/07/21 07:44:08;;;;;;;;;2.00;2.00;;;;;29.37;34.57;101164.22;5120485;27;45309;-79
2023/07/21 07:46:34;;;;;;;;;2.00;2.00;;;;;29.69;34.35;101212.28;5120589;27;45299;-79
2023/07/21 07:49:00;;;;;;;;;0.67;0.67;;;;;29.65;34.60;101202.25;5119733;27;46150;-79
2023/07/21 07:51:25;;;;;;;;;3.00;3.00;;;;;29.69;34.17;101214.97;5119685;27;45313;-78
2023/07/21 07:53:52;;;;;;;;;1.67;1.33;;;;;29.70;34.56;101216.63;5119962;27;45263;-79
2023/07/21 07:56:17;;;;;;;;;2.00;2.00;;;;;29.70;34.70;101213.13;5119649;27;45547;-79
2023/07/21 07:58:43;;;;;;;;;3.67;3.00;;;;;29.69;34.44;101224.91;5119292;27;45328;-79
2023/07/21 08:01:12;;;;;;;;;1.00;1.00;;;;;29.66;34.19;101219.97;5120432;27;45476;-79
2023/07/21 08:03:38;;;;;;;;;1.67;1.67;;;;;29.70;34.86;101227.34;5119629;27;45393;-79
2023/07/21 08:06:03;;;;;;;;;2.67;2.00;;;;;29.70;34.66;101221.16;5120013;27;45448;-78
2023/07/21 08:08:29;;;;;;;;;3.00;3.00;;;;;28.91;34.49;101109.00;5120289;27;47939;-78
2023/07/21 08:10:54;;;;;;;;;2.00;2.00;;;;;29.69;34.62;101238.31;5119785;27;45437;-79
2023/07/21 08:13:21;;;;;;;;;2.33;1.33;;;;;29.69;34.71;101232.94;5105168;27;45278;-79
2023/07/21 08:15:46;;;;;;;;;3.00;3.00;;;;;29.53;34.88;101213.72;5097904;27;45246;-79
2023/07/21 08:18:12;;;;;;;;;4.00;3.00;;;;;29.69;35.07;101238.31;5096617;27;46123;-79
2023/07/21 08:20:42;;;;;;;;;1.00;1.00;;;;;29.69;34.74;101231.06;5096940;27;45308;-78
2023/07/21 08:23:07;;;;;;;;;1.00;1.00;;;;;29.56;34.93;101217.81;5097959;27;45438;-79
2023/07/21 08:25:33;;;;;;;;;1.67;1.67;;;;;29.69;34.83;101233.75;5097914;27;45428;-79
2023/07/21 08:28:03;;;;;;;;;2.00;2.00;;;;;29.69;34.86;101247.16;5098106;27;45363;-78
2023/07/21 08:30:29;;;;;;;;;0.67;0.33;;;;;29.66;34.89;101230.72;5098303;27;45225;-79
2023/07/21 08:32:58;;;;;;;;;4.33;2.67;;;;;29.70;34.82;101240.75;5098032;27;45459;-78
2023/07/21 08:35:24;;;;;;;;;0.33;0.33;;;;;29.61;34.77;101234.84;5096994;27;45475;-79
2023/07/21 08:37:49;;;;;;;;;2.00;2.00;;;;;29.72;34.77;101245.91;5097762;27;46010;-78
2023/07/21 08:40:16;;;;;;;;;0.33;0.33;;;;;29.37;34.60;101185.66;5099355;27;45389;-79
2023/07/21 08:42:41;;;;;;;;;2.33;2.33;;;;;29.67;35.03;101229.66;5098184;27;45260;-79
2023/07/21 08:45:08;;;;;;;;;3.33;2.33;;;;;29.58;34.65;101227.28;5098508;27;45290;-79
2023/07/21 08:47:34;;;;;;;;;2.33;2.33;;;;;29.36;34.85;101192.03;5098909;27;46401;-79
2023/07/21 08:50:03;;;;;;;;;2.00;2.00;;;;;29.61;35.08;101242.91;5097962;27;45267;-79
2023/07/21 08:52:28;;;;;;;;;2.00;2.00;;;;;29.56;35.32;101234.72;5097999;27;45369;-78
2023/07/21 08:54:54;;;;;;;;;2.67;1.67;;;;;29.59;35.23;101246.84;5097717;27;45354;-78
2023/07/21 08:57:19;;;;;;;;;2.33;2.33;;;;;29.44;35.27;101221.22;5098170;27;46510;-79
2023/07/21 08:59:45;;;;;;;;;1.00;1.00;;;;;29.51;35.20;101230.03;5097711;27;45394;-78
2023/07/21 09:02:10;;;;;;;;;2.33;1.33;;;;;29.54;35.35;101227.94;5096164;27;45378;-79
2023/07/21 09:04:36;;;;;;;;;2.67;2.67;;;;;29.59;35.25;101238.81;5110314;27;45362;-80
2023/07/21 09:07:03;;;;;;;;;1.33;1.33;;;;;29.38;35.53;101220.25;5119245;27;46416;-79
2023/07/21 09:09:32;;;;;;;;;3.67;3.67;;;;;29.66;35.20;101247.63;5117600;27;45396;-79
2023/07/21 09:12:04;;;;;;;;;2.00;2.00;;;;;29.68;35.20;101245.53;5114227;27;45376;-79
2023/07/21 09:14:36;;;;;;;;;2.00;2.00;;;;;29.70;35.11;101243.44;5096952;27;45561;-78
2023/07/21 09:17:06;;;;;;;;;3.00;2.00;;;;;29.70;34.77;101239.94;5100339;27;45472;-79
2023/07/21 09:19:40;;;;;;;;;2.00;2.00;;;;;29.72;35.04;101238.69;5101025;27;45421;-78
2023/07/21 09:22:09;;;;;;;;;1.33;1.33;;;;;29.73;35.06;101239.53;5102375;27;45369;-78
2023/07/21 09:24:35;;;;;;;;;5.00;3.00;;;;;28.70;35.14;101086.94;5100651;27;45583;-79
2023/07/21 09:27:15;;;;;;;;;2.33;2.00;;;;;29.41;35.33;101181.47;5101092;27;46261;-78
2023/07/21 09:29:41;;;;;;;;;3.00;2.67;;;;;29.74;35.10;101244.66;5102123;27;45403;-79
2023/07/21 09:32:15;;;;;;;;;3.00;3.00;;;;;29.69;34.56;101225.69;5099319;27;45351;-77
2023/07/21 09:34:59;;;;;;;;;3.00;3.00;;;;;28.80;34.86;101091.00;5101199;27;45401;-79
2023/07/21 09:37:29;;;;;;;;;2.00;2.00;;;;;29.65;35.07;101227.19;5101225;27;45773;-79
2023/07/21 09:39:57;;;;;;;;;2.00;2.00;;;;;29.34;35.07;101194.94;5101563;27;45278;-79
2023/07/21 09:42:23;;;;;;;;;2.00;2.00;;;;;29.72;34.90;101252.09;5101309;27;45252;-78
2023/07/21 09:44:50;;;;;;;;;3.33;2.67;;;;;29.72;35.26;101256.63;5101185;27;45603;-78
2023/07/21 09:47:16;;;;;;;;;2.33;2.33;;;;;29.29;34.85;101190.28;5102244;27;46173;-78
2023/07/21 09:49:42;;;;;;;;;2.33;2.33;;;;;29.72;34.79;101245.91;5099486;27;45500;-79
2023/07/21 09:52:10;;;;;;;;;3.00;3.00;;;;;29.72;34.90;101256.63;5100300;27;45385;-79
2023/07/21 09:54:39;;;;;;;;;2.00;2.00;;;;;29.72;34.58;101248.59;5099198;27;45496;-79
2023/07/21 09:57:06;;;;;;;;;2.00;2.00;;;;;29.71;34.99;101244.25;5099309;27;46442;-78
2023/07/21 09:59:37;;;;;;;;;2.67;1.33;;;;;29.68;34.56;101245.53;5098904;27;45408;-79
2023/07/21 10:02:07;;;;;;;;;1.67;1.00;;;;;29.65;34.76;101229.06;5112159;27;45341;-78
2023/07/21 10:04:34;;;;;;;;;2.33;2.33;;;;;29.69;34.78;101249.03;5119830;27;45405;-79
2023/07/21 10:07:03;;;;;;;;;3.00;3.00;;;;;29.50;34.53;101222.22;5119465;27;46336;-78
2023/07/21 10:09:30;;;;;;;;;2.00;2.00;;;;;29.74;34.49;101247.34;5119627;27;45338;-79
2023/07/21 10:12:08;;;;;;;;;2.33;2.33;;;;;29.72;34.10;101244.06;5116671;27;45363;-78
2023/07/21 10:14:37;;;;;;;;;2.00;2.00;;;;;29.48;34.49;101230.50;5099040;27;45441;-79
2023/07/21 10:17:02;;;;;;;;;1.67;1.67;;;;;29.42;34.73;101215.28;5098196;27;46111;-79
2023/07/21 10:19:29;;;;;;;;;3.00;3.00;;;;;29.67;34.92;101254.59;5098793;27;45394;-78
2023/07/21 10:21:54;;;;;;;;;2.00;2.00;;;;;29.67;34.36;101259.13;5098860;27;45342;-79
2023/07/21 10:24:24;;;;;;;;;3.67;2.33;;;;;29.64;34.38;101249.69;5098720;27;45299;-78
2023/07/21 10:27:00;;;;;;;;;2.00;2.00;;;;;29.58;34.62;101240.69;5098179;27;46345;-78
2023/07/21 10:29:25;;;;;;;;;2.00;2.00;;;;;29.65;34.59;101259.38;5098217;27;45271;-78
2023/07/21 10:31:56;;;;;;;;;5.33;2.33;;;;;29.65;34.37;101255.88;5098383;27;45233;-78
2023/07/21 10:34:39;;;;;;;;;4.00;2.00;;;;;29.49;34.63;101239.31;5098552;27;45667;-79
2023/07/21 10:37:05;;;;;;;;;4.00;2.33;;;;;29.29;34.08;101217.06;5098560;27;46588;-79
2023/07/21 10:39:33;;;;;;;;;3.67;3.67;;;;;29.39;34.79;101229.94;5098387;27;45351;-78
2023/07/21 10:42:04;;;;;;;;;2.67;2.67;;;;;29.48;34.34;101251.94;5098617;27;45452;-79
2023/07/21 10:44:44;;;;;;;;;4.67;2.00;;;;;29.56;34.29;101260.72;5098309;27;45430;-79
2023/07/21 10:47:17;;;;;;;;;2.67;2.67;;;;;29.56;34.29;101260.72;5098323;27;45632;-78
2023/07/21 10:49:43;;;;;;;;;3.00;3.00;;;;;29.55;34.17;101267.09;5098160;27;45353;-79
2023/07/21 10:52:09;;;;;;;;;3.33;3.33;;;;;29.52;34.26;101271.06;5098174;27;45357;-79
2023/07/21 10:54:35;;;;;;;;;2.33;2.33;;;;;29.33;34.25;101241.53;5098339;27;45483;-78
2023/07/21 10:57:01;;;;;;;;;2.33;2.00;;;;;29.34;34.37;101253.09;5098319;27;46271;-79
2023/07/21 10:59:31;;;;;;;;;1.00;1.00;;;;;29.50;34.40;101279.31;5098019;27;45477;-79
2023/07/21 11:01:56;;;;;;;;;3.00;3.00;;;;;29.34;34.41;101255.75;5098146;27;45398;-79
2023/07/21 11:04:23;;;;;;;;;2.00;2.00;;;;;29.40;34.26;101265.63;5098122;27;45522;-79
2023/07/21 11:06:54;;;;;;;;;3.00;2.33;;;;;29.50;34.18;101281.19;5097881;27;45448;-79
2023/07/21 11:09:21;;;;;;;;;2.00;2.00;;;;;29.40;34.58;101269.13;5098008;27;45617;-78
2023/07/21 11:11:57;;;;;;;;;3.00;3.00;;;;;29.49;34.23;101285.72;5097739;27;45291;-78
2023/07/21 11:14:24;;;;;;;;;2.33;2.00;;;;;29.45;34.23;101275.66;5097628;27;45547;-78
2023/07/21 11:16:49;;;;;;;;;5.00;2.00;;;;;29.48;34.36;101275.22;5097226;27;46121;-79
2023/07/21 11:19:16;;;;;;;;;3.00;3.00;;;;;29.49;34.49;101272.31;5098837;27;45266;-79
2023/07/21 11:21:41;;;;;;;;;2.00;2.00;;;;;29.37;34.42;101258.84;5100147;27;45326;-78